Aérodrome :
LOGIN :

S'inscrire | Disclaimer

   EN    FR    IT 

 










Légende :    VFR   VFR Marginal   IFR   IFR Intensif   IFR Très Intensif
Visi : 
Plafond : 
>= 8 km
>= 3000ft
5 à 8 km
1000 à 3000 ft
1500m à 5 km
500 à 1000 ft
800 à 1500m
200 à 500 ft
< 800m
< 200 ft
Symboles :   Orages  Brouillard  Fortes neiges  Fortes précipitations  Vent > 20 kt
SIGMETs :   Divers  Orages  Givrage  Turbulence  Onde Orograph.  Cendres Volcan.






- Altitude de l'aérodrome : 637 ft
- Code IATA : MVQ


UMOO - Mogilev

DERNIER METAR :
  • 251100Z 20005MPS 9999 FEW026 BKN/// 05/M05 Q1003 R13/CLRD// NOSIG

METARs EXPIRÉS :
  • 251000Z 21005MPS CAVOK 04/M04 Q1004 R13/CLRD// NOSIG
  • 250900Z 22004MPS CAVOK 03/M03 Q1004 R31/CLRD// NOSIG

TAF TAF UMOO
Valide du 25 à 12h jusqu'au 25 à 21h UTC


251102Z 2512/2521 18006MPS 8000 BKN015
TEMPO 2512/2514 20007G12MPS BKN010
FM251400 19005G10MPS 6000 BKN010
TEMPO 2514/2521 3000 -SHRASN BR BKN005 BKN013CB



MET'MAP, la Météo Aéronautique d'un coup d'oeil ! - Copyright ORBIFLY Décembre 2007 - Disclaimer

ORBIFLY MET'MAP TEAM :

Programmation & Développement : Alexandra Zaïnal
Sur une idée originale de : Baudouin d'Aumeries
Assistance à la programmation : Marc-Olivier Méhu
Soutien technique & logistique : Manuel Goepfert

Contact : metmap@orbifly.com




SOURCES & CREDITS :

   NOAA